sensor_id;sensor_type;location;lat;lon;timestamp;P1;durP1;ratioP1;P2;durP2;ratioP2
10248;SDS011;5169;50.560;9.714;2022-07-23T00:01:54;5.07;;;4.57;;
10248;SDS011;5169;50.560;9.714;2022-07-23T00:04:26;7.90;;;4.47;;
10248;SDS011;5169;50.560;9.714;2022-07-23T00:06:52;4.60;;;4.17;;
10248;SDS011;5169;50.560;9.714;2022-07-23T00:09:17;4.93;;;4.47;;
10248;SDS011;5169;50.560;9.714;2022-07-23T00:11:43;7.63;;;4.50;;
10248;SDS011;5169;50.560;9.714;2022-07-23T00:14:09;8.83;;;4.60;;
10248;SDS011;5169;50.560;9.714;2022-07-23T00:16:37;5.00;;;4.50;;
10248;SDS011;5169;50.560;9.714;2022-07-23T00:19:02;7.10;;;4.47;;
10248;SDS011;5169;50.560;9.714;2022-07-23T00:21:34;4.90;;;4.47;;
10248;SDS011;5169;50.560;9.714;2022-07-23T00:24:03;5.50;;;4.47;;
10248;SDS011;5169;50.560;9.714;2022-07-23T00:26:45;5.40;;;4.63;;
10248;SDS011;5169;50.560;9.714;2022-07-23T00:29:21;4.87;;;4.30;;
10248;SDS011;5169;50.560;9.714;2022-07-23T00:31:47;6.53;;;4.33;;
10248;SDS011;5169;50.560;9.714;2022-07-23T00:34:12;6.13;;;4.63;;
10248;SDS011;5169;50.560;9.714;2022-07-23T00:36:38;5.10;;;4.60;;
10248;SDS011;5169;50.560;9.714;2022-07-23T00:39:06;7.67;;;4.80;;
10248;SDS011;5169;50.560;9.714;2022-07-23T00:41:32;5.27;;;4.50;;
10248;SDS011;5169;50.560;9.714;2022-07-23T00:44:17;5.67;;;5.03;;
10248;SDS011;5169;50.560;9.714;2022-07-23T00:49:32;5.37;;;4.87;;
10248;SDS011;5169;50.560;9.714;2022-07-23T00:52:06;4.83;;;4.43;;
10248;SDS011;5169;50.560;9.714;2022-07-23T00:54:32;5.50;;;5.00;;
10248;SDS011;5169;50.560;9.714;2022-07-23T00:56:58;5.17;;;4.77;;
10248;SDS011;5169;50.560;9.714;2022-07-23T00:59:24;5.70;;;5.07;;
10248;SDS011;5169;50.560;9.714;2022-07-23T01:01:49;5.60;;;4.70;;
10248;SDS011;5169;50.560;9.714;2022-07-23T01:04:15;5.77;;;5.17;;
10248;SDS011;5169;50.560;9.714;2022-07-23T01:06:41;5.20;;;4.77;;
10248;SDS011;5169;50.560;9.714;2022-07-23T01:09:14;6.20;;;4.87;;
10248;SDS011;5169;50.560;9.714;2022-07-23T01:11:40;5.87;;;4.67;;
10248;SDS011;5169;50.560;9.714;2022-07-23T01:14:08;5.93;;;5.20;;
10248;SDS011;5169;50.560;9.714;2022-07-23T01:16:45;5.27;;;4.47;;
10248;SDS011;5169;50.560;9.714;2022-07-23T01:19:15;6.50;;;5.10;;
10248;SDS011;5169;50.560;9.714;2022-07-23T01:21:42;7.20;;;4.70;;
10248;SDS011;5169;50.560;9.714;2022-07-23T01:24:10;5.40;;;4.60;;
10248;SDS011;5169;50.560;9.714;2022-07-23T01:26:45;5.10;;;4.60;;
10248;SDS011;5169;50.560;9.714;2022-07-23T01:29:14;7.70;;;4.73;;
10248;SDS011;5169;50.560;9.714;2022-07-23T01:31:40;7.47;;;4.70;;
10248;SDS011;5169;50.560;9.714;2022-07-23T01:34:06;6.20;;;4.67;;
10248;SDS011;5169;50.560;9.714;2022-07-23T01:36:36;6.83;;;4.97;;
10248;SDS011;5169;50.560;9.714;2022-07-23T01:39:04;5.17;;;4.50;;
10248;SDS011;5169;50.560;9.714;2022-07-23T01:41:32;6.63;;;4.97;;
10248;SDS011;5169;50.560;9.714;2022-07-23T01:43:58;6.10;;;4.63;;
10248;SDS011;5169;50.560;9.714;2022-07-23T01:46:27;5.60;;;4.70;;
10248;SDS011;5169;50.560;9.714;2022-07-23T01:48:52;6.93;;;4.53;;
10248;SDS011;5169;50.560;9.714;2022-07-23T01:51:18;6.27;;;4.87;;
10248;SDS011;5169;50.560;9.714;2022-07-23T01:53:44;8.00;;;4.87;;
10248;SDS011;5169;50.560;9.714;2022-07-23T01:56:09;5.93;;;4.67;;
10248;SDS011;5169;50.560;9.714;2022-07-23T01:58:43;5.70;;;5.10;;
10248;SDS011;5169;50.560;9.714;2022-07-23T02:01:08;6.70;;;5.20;;
10248;SDS011;5169;50.560;9.714;2022-07-23T02:03:36;5.47;;;4.67;;
10248;SDS011;5169;50.560;9.714;2022-07-23T02:06:07;7.80;;;5.07;;
10248;SDS011;5169;50.560;9.714;2022-07-23T02:08:35;5.57;;;5.07;;
10248;SDS011;5169;50.560;9.714;2022-07-23T02:11:01;8.53;;;4.83;;
10248;SDS011;5169;50.560;9.714;2022-07-23T02:13:27;5.47;;;4.97;;
10248;SDS011;5169;50.560;9.714;2022-07-23T02:15:55;9.17;;;5.20;;
10248;SDS011;5169;50.560;9.714;2022-07-23T02:18:26;6.17;;;4.80;;
10248;SDS011;5169;50.560;9.714;2022-07-23T02:20:52;9.27;;;5.60;;
10248;SDS011;5169;50.560;9.714;2022-07-23T02:23:20;7.53;;;4.90;;
10248;SDS011;5169;50.560;9.714;2022-07-23T02:25:52;5.97;;;5.10;;
10248;SDS011;5169;50.560;9.714;2022-07-23T02:28:17;5.30;;;4.80;;
10248;SDS011;5169;50.560;9.714;2022-07-23T02:30:51;6.73;;;5.37;;
10248;SDS011;5169;50.560;9.714;2022-07-23T02:33:17;5.53;;;4.97;;
10248;SDS011;5169;50.560;9.714;2022-07-23T02:35:42;6.17;;;5.20;;
10248;SDS011;5169;50.560;9.714;2022-07-23T02:38:08;6.20;;;5.00;;
10248;SDS011;5169;50.560;9.714;2022-07-23T02:40:36;5.87;;;5.33;;
10248;SDS011;5169;50.560;9.714;2022-07-23T02:43:11;6.07;;;5.00;;
10248;SDS011;5169;50.560;9.714;2022-07-23T02:45:40;5.77;;;4.60;;
10248;SDS011;5169;50.560;9.714;2022-07-23T02:48:06;9.23;;;5.10;;
10248;SDS011;5169;50.560;9.714;2022-07-23T02:50:34;6.23;;;5.17;;
10248;SDS011;5169;50.560;9.714;2022-07-23T02:53:00;6.70;;;5.20;;
10248;SDS011;5169;50.560;9.714;2022-07-23T02:55:29;6.77;;;5.30;;
10248;SDS011;5169;50.560;9.714;2022-07-23T02:57:56;6.07;;;5.30;;
10248;SDS011;5169;50.560;9.714;2022-07-23T03:00:21;6.37;;;5.30;;
10248;SDS011;5169;50.560;9.714;2022-07-23T03:02:47;5.63;;;4.90;;
10248;SDS011;5169;50.560;9.714;2022-07-23T03:05:13;6.00;;;5.40;;
10248;SDS011;5169;50.560;9.714;2022-07-23T03:07:38;7.83;;;5.57;;
10248;SDS011;5169;50.560;9.714;2022-07-23T03:10:07;5.93;;;5.27;;
10248;SDS011;5169;50.560;9.714;2022-07-23T03:12:33;6.47;;;5.30;;
10248;SDS011;5169;50.560;9.714;2022-07-23T03:15:01;6.40;;;5.50;;
10248;SDS011;5169;50.560;9.714;2022-07-23T03:17:27;8.33;;;5.40;;
10248;SDS011;5169;50.560;9.714;2022-07-23T03:19:53;8.73;;;5.97;;
10248;SDS011;5169;50.560;9.714;2022-07-23T03:22:26;6.90;;;5.73;;
10248;SDS011;5169;50.560;9.714;2022-07-23T03:24:54;7.60;;;6.00;;
10248;SDS011;5169;50.560;9.714;2022-07-23T03:27:23;7.00;;;5.90;;
10248;SDS011;5169;50.560;9.714;2022-07-23T03:29:53;5.70;;;5.20;;
10248;SDS011;5169;50.560;9.714;2022-07-23T03:32:19;6.03;;;5.43;;
10248;SDS011;5169;50.560;9.714;2022-07-23T03:34:53;9.93;;;5.83;;
10248;SDS011;5169;50.560;9.714;2022-07-23T03:37:19;6.33;;;5.50;;
10248;SDS011;5169;50.560;9.714;2022-07-23T03:39:56;9.00;;;5.97;;
10248;SDS011;5169;50.560;9.714;2022-07-23T03:42:21;8.13;;;6.43;;
10248;SDS011;5169;50.560;9.714;2022-07-23T03:44:50;7.73;;;6.00;;
10248;SDS011;5169;50.560;9.714;2022-07-23T03:47:16;6.77;;;6.13;;
10248;SDS011;5169;50.560;9.714;2022-07-23T03:49:42;7.17;;;6.47;;
10248;SDS011;5169;50.560;9.714;2022-07-23T03:52:10;6.43;;;5.70;;
10248;SDS011;5169;50.560;9.714;2022-07-23T03:54:41;7.57;;;6.20;;
10248;SDS011;5169;50.560;9.714;2022-07-23T03:57:07;6.53;;;5.67;;
10248;SDS011;5169;50.560;9.714;2022-07-23T03:59:35;6.33;;;5.73;;
10248;SDS011;5169;50.560;9.714;2022-07-23T04:02:03;7.37;;;5.93;;
10248;SDS011;5169;50.560;9.714;2022-07-23T04:04:31;8.27;;;6.20;;
10248;SDS011;5169;50.560;9.714;2022-07-23T04:07:00;6.20;;;5.53;;
10248;SDS011;5169;50.560;9.714;2022-07-23T04:09:26;12.73;;;6.67;;
10248;SDS011;5169;50.560;9.714;2022-07-23T04:11:51;6.93;;;6.27;;
10248;SDS011;5169;50.560;9.714;2022-07-23T04:14:17;6.30;;;5.53;;
10248;SDS011;5169;50.560;9.714;2022-07-23T04:16:49;6.57;;;5.87;;
10248;SDS011;5169;50.560;9.714;2022-07-23T04:19:14;6.57;;;5.97;;
10248;SDS011;5169;50.560;9.714;2022-07-23T04:21:40;8.10;;;6.10;;
10248;SDS011;5169;50.560;9.714;2022-07-23T04:24:08;7.17;;;6.47;;
10248;SDS011;5169;50.560;9.714;2022-07-23T04:26:33;7.43;;;6.60;;
10248;SDS011;5169;50.560;9.714;2022-07-23T04:29:04;9.20;;;6.63;;
10248;SDS011;5169;50.560;9.714;2022-07-23T04:31:32;7.97;;;6.70;;
10248;SDS011;5169;50.560;9.714;2022-07-23T04:33:57;8.20;;;6.60;;
10248;SDS011;5169;50.560;9.714;2022-07-23T04:36:23;7.43;;;6.20;;
10248;SDS011;5169;50.560;9.714;2022-07-23T04:38:49;7.00;;;6.30;;
10248;SDS011;5169;50.560;9.714;2022-07-23T04:41:14;8.83;;;7.10;;
10248;SDS011;5169;50.560;9.714;2022-07-23T04:43:40;7.20;;;6.50;;
10248;SDS011;5169;50.560;9.714;2022-07-23T04:46:10;8.40;;;6.90;;
10248;SDS011;5169;50.560;9.714;2022-07-23T04:48:42;7.40;;;6.47;;
10248;SDS011;5169;50.560;9.714;2022-07-23T04:51:08;7.90;;;6.97;;
10248;SDS011;5169;50.560;9.714;2022-07-23T04:53:33;8.60;;;7.50;;
10248;SDS011;5169;50.560;9.714;2022-07-23T04:55:59;10.60;;;7.53;;
10248;SDS011;5169;50.560;9.714;2022-07-23T04:58:25;9.80;;;7.50;;
10248;SDS011;5169;50.560;9.714;2022-07-23T05:00:53;7.93;;;7.10;;
10248;SDS011;5169;50.560;9.714;2022-07-23T05:03:25;9.17;;;7.40;;
10248;SDS011;5169;50.560;9.714;2022-07-23T05:05:50;7.63;;;6.70;;
10248;SDS011;5169;50.560;9.714;2022-07-23T05:08:18;7.47;;;6.77;;
10248;SDS011;5169;50.560;9.714;2022-07-23T05:10:46;7.93;;;6.90;;
10248;SDS011;5169;50.560;9.714;2022-07-23T05:13:15;7.97;;;6.60;;
10248;SDS011;5169;50.560;9.714;2022-07-23T05:15:41;8.67;;;6.70;;
10248;SDS011;5169;50.560;9.714;2022-07-23T05:18:11;8.00;;;7.20;;
10248;SDS011;5169;50.560;9.714;2022-07-23T05:20:38;8.03;;;7.13;;
10248;SDS011;5169;50.560;9.714;2022-07-23T05:23:04;7.53;;;6.60;;
10248;SDS011;5169;50.560;9.714;2022-07-23T05:25:31;7.47;;;6.13;;
10248;SDS011;5169;50.560;9.714;2022-07-23T05:27:57;11.57;;;7.40;;
10248;SDS011;5169;50.560;9.714;2022-07-23T05:30:23;10.03;;;8.10;;
10248;SDS011;5169;50.560;9.714;2022-07-23T05:32:51;9.03;;;8.13;;
10248;SDS011;5169;50.560;9.714;2022-07-23T05:35:25;11.10;;;8.07;;
10248;SDS011;5169;50.560;9.714;2022-07-23T05:37:51;8.77;;;7.87;;
10248;SDS011;5169;50.560;9.714;2022-07-23T05:40:17;8.97;;;7.77;;
10248;SDS011;5169;50.560;9.714;2022-07-23T05:42:46;9.83;;;8.07;;
10248;SDS011;5169;50.560;9.714;2022-07-23T05:45:14;8.43;;;7.60;;
10248;SDS011;5169;50.560;9.714;2022-07-23T05:47:43;9.63;;;8.10;;
10248;SDS011;5169;50.560;9.714;2022-07-23T05:50:16;9.10;;;8.10;;
10248;SDS011;5169;50.560;9.714;2022-07-23T05:52:42;9.47;;;8.40;;
10248;SDS011;5169;50.560;9.714;2022-07-23T05:55:09;9.40;;;8.00;;
10248;SDS011;5169;50.560;9.714;2022-07-23T05:57:39;9.43;;;8.47;;
10248;SDS011;5169;50.560;9.714;2022-07-23T06:00:06;8.27;;;7.47;;
10248;SDS011;5169;50.560;9.714;2022-07-23T06:02:33;9.57;;;8.33;;
10248;SDS011;5169;50.560;9.714;2022-07-23T06:04:59;9.17;;;8.10;;
10248;SDS011;5169;50.560;9.714;2022-07-23T06:07:28;9.10;;;7.47;;
10248;SDS011;5169;50.560;9.714;2022-07-23T06:09:54;8.53;;;7.70;;
10248;SDS011;5169;50.560;9.714;2022-07-23T06:12:22;9.47;;;8.33;;
10248;SDS011;5169;50.560;9.714;2022-07-23T06:14:51;9.03;;;8.10;;
10248;SDS011;5169;50.560;9.714;2022-07-23T06:17:17;9.40;;;8.33;;
10248;SDS011;5169;50.560;9.714;2022-07-23T06:19:43;8.77;;;7.57;;
10248;SDS011;5169;50.560;9.714;2022-07-23T06:22:09;8.90;;;8.00;;
10248;SDS011;5169;50.560;9.714;2022-07-23T06:24:34;9.37;;;8.47;;
10248;SDS011;5169;50.560;9.714;2022-07-23T06:27:06;10.37;;;8.47;;
10248;SDS011;5169;50.560;9.714;2022-07-23T06:29:32;9.80;;;8.80;;
10248;SDS011;5169;50.560;9.714;2022-07-23T06:31:58;9.27;;;8.20;;
10248;SDS011;5169;50.560;9.714;2022-07-23T06:34:23;9.80;;;8.40;;
10248;SDS011;5169;50.560;9.714;2022-07-23T06:36:51;9.17;;;8.33;;
10248;SDS011;5169;50.560;9.714;2022-07-23T06:39:17;9.20;;;8.30;;
10248;SDS011;5169;50.560;9.714;2022-07-23T06:41:43;11.57;;;8.83;;
10248;SDS011;5169;50.560;9.714;2022-07-23T06:44:08;9.50;;;8.47;;
10248;SDS011;5169;50.560;9.714;2022-07-23T06:46:41;10.90;;;9.37;;
10248;SDS011;5169;50.560;9.714;2022-07-23T06:49:10;10.37;;;8.90;;
10248;SDS011;5169;50.560;9.714;2022-07-23T06:51:36;9.83;;;8.93;;
10248;SDS011;5169;50.560;9.714;2022-07-23T06:54:04;10.30;;;9.23;;
10248;SDS011;5169;50.560;9.714;2022-07-23T06:56:29;9.27;;;8.37;;
10248;SDS011;5169;50.560;9.714;2022-07-23T06:59:01;8.90;;;8.00;;
10248;SDS011;5169;50.560;9.714;2022-07-23T07:01:35;10.30;;;9.30;;
10248;SDS011;5169;50.560;9.714;2022-07-23T07:04:00;10.73;;;9.60;;
10248;SDS011;5169;50.560;9.714;2022-07-23T07:06:26;9.47;;;8.57;;
10248;SDS011;5169;50.560;9.714;2022-07-23T07:08:55;10.90;;;9.80;;
10248;SDS011;5169;50.560;9.714;2022-07-23T07:11:31;18.47;;;14.50;;
10248;SDS011;5169;50.560;9.714;2022-07-23T07:13:57;19.53;;;15.17;;
10248;SDS011;5169;50.560;9.714;2022-07-23T07:16:22;11.93;;;10.30;;
10248;SDS011;5169;50.560;9.714;2022-07-23T07:18:48;11.10;;;10.00;;
10248;SDS011;5169;50.560;9.714;2022-07-23T07:21:14;11.07;;;9.23;;
10248;SDS011;5169;50.560;9.714;2022-07-23T07:23:42;10.80;;;9.70;;
10248;SDS011;5169;50.560;9.714;2022-07-23T07:26:17;11.47;;;9.90;;
10248;SDS011;5169;50.560;9.714;2022-07-23T07:28:42;12.17;;;10.70;;
10248;SDS011;5169;50.560;9.714;2022-07-23T07:31:08;13.30;;;9.50;;
10248;SDS011;5169;50.560;9.714;2022-07-23T07:33:36;14.13;;;10.67;;
10248;SDS011;5169;50.560;9.714;2022-07-23T07:36:01;10.53;;;9.40;;
10248;SDS011;5169;50.560;9.714;2022-07-23T07:38:28;13.20;;;9.87;;
10248;SDS011;5169;50.560;9.714;2022-07-23T07:40:53;10.40;;;9.30;;
10248;SDS011;5169;50.560;9.714;2022-07-23T07:43:19;10.20;;;9.17;;
10248;SDS011;5169;50.560;9.714;2022-07-23T07:45:45;11.07;;;9.97;;
10248;SDS011;5169;50.560;9.714;2022-07-23T07:48:11;12.77;;;11.20;;
10248;SDS011;5169;50.560;9.714;2022-07-23T07:50:36;11.57;;;10.23;;
10248;SDS011;5169;50.560;9.714;2022-07-23T07:53:05;11.77;;;10.57;;
10248;SDS011;5169;50.560;9.714;2022-07-23T07:55:31;12.20;;;10.77;;
10248;SDS011;5169;50.560;9.714;2022-07-23T07:57:58;12.53;;;10.30;;
10248;SDS011;5169;50.560;9.714;2022-07-23T08:00:30;12.77;;;10.00;;
10248;SDS011;5169;50.560;9.714;2022-07-23T08:03:00;11.40;;;10.30;;
10248;SDS011;5169;50.560;9.714;2022-07-23T08:05:27;13.20;;;11.00;;
10248;SDS011;5169;50.560;9.714;2022-07-23T08:08:00;14.27;;;11.03;;
10248;SDS011;5169;50.560;9.714;2022-07-23T08:10:27;11.60;;;10.43;;
10248;SDS011;5169;50.560;9.714;2022-07-23T08:12:59;11.50;;;10.30;;
10248;SDS011;5169;50.560;9.714;2022-07-23T08:15:28;14.07;;;10.37;;
10248;SDS011;5169;50.560;9.714;2022-07-23T08:18:03;11.33;;;10.23;;
10248;SDS011;5169;50.560;9.714;2022-07-23T08:20:29;11.77;;;10.27;;
10248;SDS011;5169;50.560;9.714;2022-07-23T08:23:05;13.13;;;11.93;;
10248;SDS011;5169;50.560;9.714;2022-07-23T08:25:38;14.30;;;10.53;;
10248;SDS011;5169;50.560;9.714;2022-07-23T08:28:06;12.40;;;10.07;;
10248;SDS011;5169;50.560;9.714;2022-07-23T08:30:37;11.03;;;9.93;;
10248;SDS011;5169;50.560;9.714;2022-07-23T08:33:10;15.20;;;10.37;;
10248;SDS011;5169;50.560;9.714;2022-07-23T08:35:41;10.80;;;9.70;;
10248;SDS011;5169;50.560;9.714;2022-07-23T08:38:13;12.10;;;10.60;;
10248;SDS011;5169;50.560;9.714;2022-07-23T08:40:41;11.57;;;10.17;;
10248;SDS011;5169;50.560;9.714;2022-07-23T08:43:13;13.77;;;10.33;;
10248;SDS011;5169;50.560;9.714;2022-07-23T08:45:50;9.97;;;9.07;;
10248;SDS011;5169;50.560;9.714;2022-07-23T08:48:18;10.60;;;9.53;;
10248;SDS011;5169;50.560;9.714;2022-07-23T08:50:49;11.73;;;9.83;;
10248;SDS011;5169;50.560;9.714;2022-07-23T08:53:19;13.33;;;10.33;;
10248;SDS011;5169;50.560;9.714;2022-07-23T08:55:50;10.80;;;9.57;;
10248;SDS011;5169;50.560;9.714;2022-07-23T08:58:17;11.17;;;10.03;;
10248;SDS011;5169;50.560;9.714;2022-07-23T09:00:47;11.17;;;10.03;;
10248;SDS011;5169;50.560;9.714;2022-07-23T09:03:19;11.13;;;9.77;;
10248;SDS011;5169;50.560;9.714;2022-07-23T09:05:59;10.50;;;9.50;;
10248;SDS011;5169;50.560;9.714;2022-07-23T09:11:12;11.03;;;9.83;;
10248;SDS011;5169;50.560;9.714;2022-07-23T09:13:42;10.87;;;9.80;;
10248;SDS011;5169;50.560;9.714;2022-07-23T09:16:19;11.37;;;9.20;;
10248;SDS011;5169;50.560;9.714;2022-07-23T09:18:53;11.70;;;10.10;;
10248;SDS011;5169;50.560;9.714;2022-07-23T09:21:29;10.63;;;9.20;;
10248;SDS011;5169;50.560;9.714;2022-07-23T09:26:37;9.67;;;8.67;;
10248;SDS011;5169;50.560;9.714;2022-07-23T09:37:12;9.90;;;9.00;;
10248;SDS011;5169;50.560;9.714;2022-07-23T09:39:40;12.00;;;10.83;;
10248;SDS011;5169;50.560;9.714;2022-07-23T09:42:16;8.97;;;8.17;;
10248;SDS011;5169;50.560;9.714;2022-07-23T09:44:44;9.10;;;8.30;;
10248;SDS011;5169;50.560;9.714;2022-07-23T09:47:21;8.80;;;7.30;;
10248;SDS011;5169;50.560;9.714;2022-07-23T09:49:58;10.27;;;9.37;;
10248;SDS011;5169;50.560;9.714;2022-07-23T09:52:52;10.43;;;9.40;;
10248;SDS011;5169;50.560;9.714;2022-07-23T09:55:17;8.77;;;7.97;;
10248;SDS011;5169;50.560;9.714;2022-07-23T09:57:44;9.80;;;7.93;;
10248;SDS011;5169;50.560;9.714;2022-07-23T10:00:11;9.80;;;8.90;;
10248;SDS011;5169;50.560;9.714;2022-07-23T10:02:44;8.77;;;8.03;;
10248;SDS011;5169;50.560;9.714;2022-07-23T10:05:16;8.63;;;7.70;;
10248;SDS011;5169;50.560;9.714;2022-07-23T10:07:44;9.17;;;7.80;;
10248;SDS011;5169;50.560;9.714;2022-07-23T10:16:22;7.13;;;6.50;;
10248;SDS011;5169;50.560;9.714;2022-07-23T10:18:55;8.17;;;7.37;;
10248;SDS011;5169;50.560;9.714;2022-07-23T10:21:25;7.20;;;6.47;;
10248;SDS011;5169;50.560;9.714;2022-07-23T10:24:17;7.93;;;7.13;;
10248;SDS011;5169;50.560;9.714;2022-07-23T10:29:47;8.43;;;6.70;;
10248;SDS011;5169;50.560;9.714;2022-07-23T10:38:14;6.63;;;6.03;;
10248;SDS011;5169;50.560;9.714;2022-07-23T10:40:54;7.27;;;5.97;;
10248;SDS011;5169;50.560;9.714;2022-07-23T10:43:21;7.77;;;6.33;;
10248;SDS011;5169;50.560;9.714;2022-07-23T10:45:46;5.97;;;5.27;;
10248;SDS011;5169;50.560;9.714;2022-07-23T10:53:56;6.00;;;5.40;;
10248;SDS011;5169;50.560;9.714;2022-07-23T10:59:15;5.40;;;3.97;;
10248;SDS011;5169;50.560;9.714;2022-07-23T11:01:40;4.72;;;4.15;;
10248;SDS011;5169;50.560;9.714;2022-07-23T11:04:06;4.32;;;3.92;;
10248;SDS011;5169;50.560;9.714;2022-07-23T11:12:31;5.30;;;4.90;;
10248;SDS011;5169;50.560;9.714;2022-07-23T11:17:31;5.00;;;4.60;;
10248;SDS011;5169;50.560;9.714;2022-07-23T11:23:19;4.97;;;4.57;;
10248;SDS011;5169;50.560;9.714;2022-07-23T11:25:30;5.45;;;4.70;;
10248;SDS011;5169;50.560;9.714;2022-07-23T11:28:17;5.30;;;4.55;;
10248;SDS011;5169;50.560;9.714;2022-07-23T11:30:46;4.75;;;4.25;;
10248;SDS011;5169;50.560;9.714;2022-07-23T11:35:42;5.60;;;4.53;;
10248;SDS011;5169;50.560;9.714;2022-07-23T11:38:28;5.05;;;4.20;;
10248;SDS011;5169;50.560;9.714;2022-07-23T11:40:56;6.18;;;4.85;;
10248;SDS011;5169;50.560;9.714;2022-07-23T11:43:24;5.63;;;4.80;;
10248;SDS011;5169;50.560;9.714;2022-07-23T11:45:52;6.22;;;4.65;;
10248;SDS011;5169;50.560;9.714;2022-07-23T11:48:22;5.50;;;4.47;;
10248;SDS011;5169;50.560;9.714;2022-07-23T11:50:50;5.38;;;4.88;;
10248;SDS011;5169;50.560;9.714;2022-07-23T11:55:56;5.68;;;5.10;;
10248;SDS011;5169;50.560;9.714;2022-07-23T11:58:31;5.30;;;4.80;;
10248;SDS011;5169;50.560;9.714;2022-07-23T12:01:03;5.47;;;4.72;;
10248;SDS011;5169;50.560;9.714;2022-07-23T12:03:29;3.97;;;3.55;;
10248;SDS011;5169;50.560;9.714;2022-07-23T12:05:58;4.95;;;3.60;;
10248;SDS011;5169;50.560;9.714;2022-07-23T12:08:27;4.40;;;3.70;;
10248;SDS011;5169;50.560;9.714;2022-07-23T12:10:53;3.85;;;3.55;;
10248;SDS011;5169;50.560;9.714;2022-07-23T12:13:19;4.35;;;3.80;;
10248;SDS011;5169;50.560;9.714;2022-07-23T12:15:49;5.38;;;3.80;;
10248;SDS011;5169;50.560;9.714;2022-07-23T12:18:22;4.22;;;3.83;;
10248;SDS011;5169;50.560;9.714;2022-07-23T12:20:54;7.13;;;3.72;;
10248;SDS011;5169;50.560;9.714;2022-07-23T12:23:22;5.32;;;3.90;;
10248;SDS011;5169;50.560;9.714;2022-07-23T12:25:50;4.50;;;3.70;;
10248;SDS011;5169;50.560;9.714;2022-07-23T12:28:18;4.10;;;3.80;;
10248;SDS011;5169;50.560;9.714;2022-07-23T12:30:52;3.90;;;3.60;;
10248;SDS011;5169;50.560;9.714;2022-07-23T12:35:53;4.93;;;3.97;;
10248;SDS011;5169;50.560;9.714;2022-07-23T12:38:21;4.82;;;4.43;;
10248;SDS011;5169;50.560;9.714;2022-07-23T12:50:58;3.92;;;3.63;;
10248;SDS011;5169;50.560;9.714;2022-07-23T12:53:29;4.25;;;3.85;;
10248;SDS011;5169;50.560;9.714;2022-07-23T12:55:58;5.13;;;4.57;;
10248;SDS011;5169;50.560;9.714;2022-07-23T12:58:53;4.00;;;3.67;;
10248;SDS011;5169;50.560;9.714;2022-07-23T13:03:56;5.50;;;4.00;;
10248;SDS011;5169;50.560;9.714;2022-07-23T13:06:33;4.20;;;3.90;;
10248;SDS011;5169;50.560;9.714;2022-07-23T13:09:01;5.03;;;4.00;;
10248;SDS011;5169;50.560;9.714;2022-07-23T13:11:28;5.30;;;4.43;;
10248;SDS011;5169;50.560;9.714;2022-07-23T13:13:56;5.43;;;4.18;;
10248;SDS011;5169;50.560;9.714;2022-07-23T13:16:22;4.65;;;4.07;;
10248;SDS011;5169;50.560;9.714;2022-07-23T13:18:47;4.93;;;4.25;;
10248;SDS011;5169;50.560;9.714;2022-07-23T13:21:13;5.38;;;4.40;;
10248;SDS011;5169;50.560;9.714;2022-07-23T13:23:39;4.72;;;4.20;;
10248;SDS011;5169;50.560;9.714;2022-07-23T13:26:07;4.80;;;4.25;;
10248;SDS011;5169;50.560;9.714;2022-07-23T13:28:35;6.45;;;4.25;;
10248;SDS011;5169;50.560;9.714;2022-07-23T13:31:03;6.07;;;4.30;;
10248;SDS011;5169;50.560;9.714;2022-07-23T13:33:29;4.28;;;3.97;;
10248;SDS011;5169;50.560;9.714;2022-07-23T13:35:55;4.90;;;4.40;;
10248;SDS011;5169;50.560;9.714;2022-07-23T13:38:21;6.03;;;4.10;;
10248;SDS011;5169;50.560;9.714;2022-07-23T13:40:49;4.13;;;3.72;;
10248;SDS011;5169;50.560;9.714;2022-07-23T13:43:16;6.00;;;4.22;;
10248;SDS011;5169;50.560;9.714;2022-07-23T13:45:44;7.80;;;4.43;;
10248;SDS011;5169;50.560;9.714;2022-07-23T13:48:13;6.10;;;4.20;;
10248;SDS011;5169;50.560;9.714;2022-07-23T13:50:39;36.10;;;6.32;;
10248;SDS011;5169;50.560;9.714;2022-07-23T13:53:07;4.40;;;4.00;;
10248;SDS011;5169;50.560;9.714;2022-07-23T13:55:38;4.25;;;3.78;;
10248;SDS011;5169;50.560;9.714;2022-07-23T13:58:07;5.15;;;3.88;;
10248;SDS011;5169;50.560;9.714;2022-07-23T14:00:35;4.72;;;4.15;;
10248;SDS011;5169;50.560;9.714;2022-07-23T14:03:04;5.60;;;4.63;;
10248;SDS011;5169;50.560;9.714;2022-07-23T14:05:32;4.82;;;4.43;;
10248;SDS011;5169;50.560;9.714;2022-07-23T14:07:58;7.22;;;4.50;;
10248;SDS011;5169;50.560;9.714;2022-07-23T14:10:23;4.72;;;4.30;;
10248;SDS011;5169;50.560;9.714;2022-07-23T14:12:50;4.55;;;4.10;;
10248;SDS011;5169;50.560;9.714;2022-07-23T14:15:17;4.85;;;4.45;;
10248;SDS011;5169;50.560;9.714;2022-07-23T14:17:44;3.95;;;3.65;;
10248;SDS011;5169;50.560;9.714;2022-07-23T14:20:11;6.43;;;4.10;;
10248;SDS011;5169;50.560;9.714;2022-07-23T14:22:37;4.95;;;4.30;;
10248;SDS011;5169;50.560;9.714;2022-07-23T14:25:06;4.65;;;4.05;;
10248;SDS011;5169;50.560;9.714;2022-07-23T14:27:38;5.60;;;3.88;;
10248;SDS011;5169;50.560;9.714;2022-07-23T14:30:07;5.05;;;4.25;;
10248;SDS011;5169;50.560;9.714;2022-07-23T14:32:34;4.95;;;4.05;;
10248;SDS011;5169;50.560;9.714;2022-07-23T14:35:01;4.63;;;4.13;;
10248;SDS011;5169;50.560;9.714;2022-07-23T14:37:27;5.03;;;4.10;;
10248;SDS011;5169;50.560;9.714;2022-07-23T14:39:55;5.72;;;4.47;;
10248;SDS011;5169;50.560;9.714;2022-07-23T14:42:20;6.78;;;4.38;;
10248;SDS011;5169;50.560;9.714;2022-07-23T14:44:46;5.18;;;4.05;;
10248;SDS011;5169;50.560;9.714;2022-07-23T14:47:12;4.80;;;4.38;;
10248;SDS011;5169;50.560;9.714;2022-07-23T14:49:37;4.43;;;4.03;;
10248;SDS011;5169;50.560;9.714;2022-07-23T14:52:06;7.35;;;4.30;;
10248;SDS011;5169;50.560;9.714;2022-07-23T14:54:32;6.03;;;4.35;;
10248;SDS011;5169;50.560;9.714;2022-07-23T14:57:02;6.25;;;4.35;;
10248;SDS011;5169;50.560;9.714;2022-07-23T14:59:28;4.40;;;3.97;;
10248;SDS011;5169;50.560;9.714;2022-07-23T15:01:55;6.97;;;4.45;;
10248;SDS011;5169;50.560;9.714;2022-07-23T15:04:21;5.25;;;4.28;;
10248;SDS011;5169;50.560;9.714;2022-07-23T15:06:47;7.72;;;4.60;;
10248;SDS011;5169;50.560;9.714;2022-07-23T15:09:13;5.72;;;4.20;;
10248;SDS011;5169;50.560;9.714;2022-07-23T15:11:41;4.45;;;3.95;;
10248;SDS011;5169;50.560;9.714;2022-07-23T15:14:07;5.47;;;4.22;;
10248;SDS011;5169;50.560;9.714;2022-07-23T15:16:33;5.30;;;4.20;;
10248;SDS011;5169;50.560;9.714;2022-07-23T15:19:00;4.35;;;3.97;;
10248;SDS011;5169;50.560;9.714;2022-07-23T15:21:27;4.82;;;4.30;;
10248;SDS011;5169;50.560;9.714;2022-07-23T15:23:54;4.13;;;3.80;;
10248;SDS011;5169;50.560;9.714;2022-07-23T15:26:29;4.65;;;4.00;;
10248;SDS011;5169;50.560;9.714;2022-07-23T15:28:55;5.43;;;4.13;;
10248;SDS011;5169;50.560;9.714;2022-07-23T15:31:26;5.65;;;4.30;;
10248;SDS011;5169;50.560;9.714;2022-07-23T15:33:51;5.75;;;4.40;;
10248;SDS011;5169;50.560;9.714;2022-07-23T15:36:18;4.53;;;4.13;;
10248;SDS011;5169;50.560;9.714;2022-07-23T15:38:44;4.05;;;3.75;;
10248;SDS011;5169;50.560;9.714;2022-07-23T15:41:12;5.13;;;4.15;;
10248;SDS011;5169;50.560;9.714;2022-07-23T15:43:38;4.93;;;4.43;;
10248;SDS011;5169;50.560;9.714;2022-07-23T15:46:06;5.50;;;4.30;;
10248;SDS011;5169;50.560;9.714;2022-07-23T15:48:33;5.32;;;4.10;;
10248;SDS011;5169;50.560;9.714;2022-07-23T15:51:00;5.60;;;4.07;;
10248;SDS011;5169;50.560;9.714;2022-07-23T15:53:26;6.68;;;4.50;;
10248;SDS011;5169;50.560;9.714;2022-07-23T15:55:52;4.18;;;3.78;;
10248;SDS011;5169;50.560;9.714;2022-07-23T15:58:18;4.70;;;4.22;;
10248;SDS011;5169;50.560;9.714;2022-07-23T16:00:45;5.30;;;4.13;;
10248;SDS011;5169;50.560;9.714;2022-07-23T16:03:13;4.32;;;3.92;;
10248;SDS011;5169;50.560;9.714;2022-07-23T16:05:41;4.30;;;3.90;;
10248;SDS011;5169;50.560;9.714;2022-07-23T16:08:07;4.00;;;3.63;;
10248;SDS011;5169;50.560;9.714;2022-07-23T16:10:33;5.60;;;4.60;;
10248;SDS011;5169;50.560;9.714;2022-07-23T16:12:59;4.43;;;4.03;;
10248;SDS011;5169;50.560;9.714;2022-07-23T16:15:27;5.95;;;4.43;;
10248;SDS011;5169;50.560;9.714;2022-07-23T16:17:55;5.00;;;4.05;;